Time;durP1;ratioP1;P1;durP2;ratioP2;P2;SDS_P1;SDS_P2;PMS_P1;PMS_P2;Temp;Humidity;BMP_temperature;BMP_pressure;BME280_temperature;BME280_humidity;BME280_pressure;Samples;Min_cycle;Max_cycle;Signal;HPM_P1;HPM_P2
2022/01/14 00:01:58;;;;;;;76.38;35.05;;;;;;;;;;5057987;28;20040;-77
2022/01/14 00:04:24;;;;;;;70.15;33.35;;;;;;;;;;5058577;28;20365;-75
2022/01/14 00:06:50;;;;;;;78.65;35.17;;;;;;;;;;5057380;28;20052;-75
2022/01/14 00:09:17;;;;;;;70.88;33.28;;;;;;;;;;5058415;28;20071;-75
2022/01/14 00:11:47;;;;;;;71.97;34.58;;;;;;;;;;5059401;28;20049;-76
2022/01/14 00:16:42;;;;;;;75.25;34.95;;;;;;;;;;5057401;28;20087;-74
2022/01/14 00:19:08;;;;;;;74.45;32.95;;;;;;;;;;5040958;28;20069;-77
2022/01/14 00:21:36;;;;;;;72.97;34.03;;;;;;;;;;5058921;28;20037;-75
2022/01/14 00:24:08;;;;;;;73.10;32.28;;;;;;;;;;5045767;28;20171;-75
2022/01/14 00:32:19;;;;;;;77.13;34.55;;;;;;;;;;5065219;28;20045;-75
2022/01/14 00:34:45;;;;;;;72.28;33.10;;;;;;;;;;5068040;28;20060;-74
2022/01/14 00:37:12;;;;;;;69.95;32.72;;;;;;;;;;5072447;28;20036;-74
2022/01/14 00:39:38;;;;;;;71.97;32.63;;;;;;;;;;5056221;28;20044;-74
2022/01/14 00:42:04;;;;;;;78.13;33.53;;;;;;;;;;5056415;28;20048;-77
2022/01/14 00:44:30;;;;;;;66.65;32.58;;;;;;;;;;5056523;28;20033;-77
2022/01/14 00:46:56;;;;;;;64.57;32.20;;;;;;;;;;5057043;28;20063;-77
2022/01/14 00:49:22;;;;;;;65.55;31.23;;;;;;;;;;5038620;28;20037;-74
2022/01/14 00:51:48;;;;;;;67.35;32.97;;;;;;;;;;5055294;28;20041;-75
2022/01/14 00:54:15;;;;;;;65.85;32.83;;;;;;;;;;5038695;28;20067;-75
2022/01/14 00:59:16;;;;;;;69.03;31.98;;;;;;;;;;5055014;28;20047;-77
2022/01/14 01:01:45;;;;;;;66.85;33.47;;;;;;;;;;5056655;28;20052;-75
2022/01/14 01:04:12;;;;;;;64.40;32.70;;;;;;;;;;5055997;28;20095;-77
2022/01/14 01:06:38;;;;;;;74.60;33.47;;;;;;;;;;5056082;28;20198;-76
2022/01/14 01:09:14;;;;;;;70.43;33.80;;;;;;;;;;5055057;28;20052;-75
2022/01/14 01:11:46;;;;;;;71.28;32.90;;;;;;;;;;5055194;28;20040;-74
2022/01/14 01:14:17;;;;;;;67.07;31.60;;;;;;;;;;5055039;28;20048;-77
2022/01/14 01:16:43;;;;;;;66.43;33.70;;;;;;;;;;5039318;28;20044;-77
2022/01/14 01:19:10;;;;;;;67.53;32.50;;;;;;;;;;5038588;28;20365;-74
2022/01/14 01:21:36;;;;;;;73.05;33.88;;;;;;;;;;5055684;28;20041;-75
2022/01/14 01:24:02;;;;;;;73.55;34.88;;;;;;;;;;5055245;28;20033;-74
2022/01/14 01:26:35;;;;;;;78.35;35.70;;;;;;;;;;5056149;28;20063;-75
2022/01/14 01:31:40;;;;;;;73.25;35.05;;;;;;;;;;5056717;28;19927;-77
2022/01/14 01:34:13;;;;;;;73.82;34.00;;;;;;;;;;5039230;28;20463;-77
2022/01/14 01:36:39;;;;;;;;;;;;;;;;;;5055534;28;20120;-77
2022/01/14 01:39:05;;;;;;;72.22;34.72;;;;;;;;;;5055566;28;20324;-76
2022/01/14 01:41:31;;;;;;;77.18;36.78;;;;;;;;;;5054675;28;20037;-75
2022/01/14 01:43:57;;;;;;;69.18;35.92;;;;;;;;;;5054552;28;20037;-77
2022/01/14 01:46:24;;;;;;;75.90;37.15;;;;;;;;;;5038063;28;20045;-75
2022/01/14 01:48:53;;;;;;;74.25;37.35;;;;;;;;;;5054556;28;20119;-76
2022/01/14 01:51:19;;;;;;;75.03;38.10;;;;;;;;;;5053874;28;20128;-75
2022/01/14 01:53:45;;;;;;;82.97;37.10;;;;;;;;;;5054700;28;20040;-75
2022/01/14 01:56:11;;;;;;;74.22;38.17;;;;;;;;;;5037394;28;20446;-75
2022/01/14 01:58:37;;;;;;;87.13;41.35;;;;;;;;;;5037503;28;20135;-77
2022/01/14 02:01:04;;;;;;;81.25;39.47;;;;;;;;;;5054458;28;20040;-77
2022/01/14 02:03:30;;;;;;;75.55;39.00;;;;;;;;;;5037491;28;20048;-77
2022/01/14 02:05:56;;;;;;;75.57;38.92;;;;;;;;;;5054183;28;20091;-75
2022/01/14 02:08:22;;;;;;;80.70;40.25;;;;;;;;;;5037184;28;20043;-77
2022/01/14 02:10:48;;;;;;;82.88;39.67;;;;;;;;;;5055431;28;20111;-75
2022/01/14 02:13:15;;;;;;;73.07;37.60;;;;;;;;;;5054623;28;20106;-74
2022/01/14 02:15:51;;;;;;;78.95;39.35;;;;;;;;;;5054158;28;20057;-75
2022/01/14 02:23:52;;;;;;;77.15;39.55;;;;;;;;;;5058022;28;20033;-75
2022/01/14 02:26:18;;;;;;;78.18;39.05;;;;;;;;;;5058207;28;20399;-74
2022/01/14 02:28:45;;;;;;;89.30;39.60;;;;;;;;;;5041490;28;20091;-74
2022/01/14 02:31:11;;;;;;;71.00;36.38;;;;;;;;;;5058200;28;20115;-76
2022/01/14 02:33:37;;;;;;;79.68;39.85;;;;;;;;;;5041393;28;20047;-75
2022/01/14 02:36:03;;;;;;;73.38;37.88;;;;;;;;;;5060407;28;20044;-75
2022/01/14 02:38:29;;;;;;;79.68;37.42;;;;;;;;;;5046551;28;20102;-77
2022/01/14 02:40:56;;;;;;;76.75;38.22;;;;;;;;;;5069094;28;20052;-82
2022/01/14 02:43:23;;;;;;;81.22;36.75;;;;;;;;;;5073001;28;20041;-82
2022/01/14 02:45:54;;;;;;;81.95;39.47;;;;;;;;;;5052580;28;20041;-82
2022/01/14 02:48:21;;;;;;;71.90;37.60;;;;;;;;;;5051278;28;20048;-82
2022/01/14 02:51:20;;;;;;;73.60;38.00;;;;;;;;;;5063934;28;20067;-82
2022/01/14 02:56:12;;;;;;;85.20;42.50;;;;;;;;;;5064287;28;20060;-81
2022/01/14 02:58:39;;;;;;;94.65;43.38;;;;;;;;;;5047620;28;20041;-81
2022/01/14 03:01:07;;;;;;;88.05;41.53;;;;;;;;;;5067383;28;20040;-81
2022/01/14 03:03:33;;;;;;;96.38;44.05;;;;;;;;;;5069905;28;20056;-81
2022/01/14 03:06:00;;;;;;;91.50;41.85;;;;;;;;;;5069139;28;20083;-83
2022/01/14 03:08:26;;;;;;;88.80;42.05;;;;;;;;;;5051886;28;20051;-82
2022/01/14 03:10:56;;;;;;;79.90;39.22;;;;;;;;;;5065670;28;20120;-82
2022/01/14 03:13:22;;;;;;;75.03;38.03;;;;;;;;;;5063605;28;20067;-81
2022/01/14 03:15:48;;;;;;;75.50;37.30;;;;;;;;;;5048512;28;20106;-81
2022/01/14 03:18:22;;;;;;;82.55;36.22;;;;;;;;;;5064225;28;20055;-81
2022/01/14 03:20:52;;;;;;;79.43;37.42;;;;;;;;;;5071766;28;20060;-81
2022/01/14 03:23:19;;;;;;;80.30;40.15;;;;;;;;;;5066076;28;20060;-81
2022/01/14 03:25:48;;;;;;;74.22;38.55;;;;;;;;;;5064449;28;20041;-81
2022/01/14 03:28:18;;;;;;;77.10;38.40;;;;;;;;;;5063164;28;20097;-81
2022/01/14 03:30:44;;;;;;;82.95;39.08;;;;;;;;;;5063925;28;20045;-81
2022/01/14 03:33:10;;;;;;;78.43;38.63;;;;;;;;;;5048407;28;20052;-82
2022/01/14 03:35:36;;;;;;;82.60;38.83;;;;;;;;;;5062554;28;20029;-81
2022/01/14 03:38:02;;;;;;;84.53;42.50;;;;;;;;;;5064929;28;20093;-79
2022/01/14 03:40:28;;;;;;;76.53;39.53;;;;;;;;;;5068521;28;20045;-80
2022/01/14 03:42:54;;;;;;;73.88;37.22;;;;;;;;;;5058518;28;20037;-81
2022/01/14 03:45:20;;;;;;;84.57;38.67;;;;;;;;;;5061105;28;20044;-81
2022/01/14 03:47:46;;;;;;;70.90;37.88;;;;;;;;;;5045816;28;20425;-81
2022/01/14 03:50:12;;;;;;;81.32;39.90;;;;;;;;;;5062364;28;20092;-81
2022/01/14 03:52:38;;;;;;;89.03;41.42;;;;;;;;;;5066891;28;20037;-81
2022/01/14 03:55:04;;;;;;;88.15;41.17;;;;;;;;;;5065331;28;20037;-83
2022/01/14 03:57:30;;;;;;;87.13;40.72;;;;;;;;;;5046483;28;20060;-81
2022/01/14 03:59:56;;;;;;;94.43;43.22;;;;;;;;;;5065342;28;20041;-81
2022/01/14 04:02:22;;;;;;;87.13;42.55;;;;;;;;;;5048549;28;20036;-82
2022/01/14 04:04:48;;;;;;;77.72;40.38;;;;;;;;;;5048604;28;20040;-81
2022/01/14 04:07:14;;;;;;;90.05;40.88;;;;;;;;;;5063315;28;20041;-83
2022/01/14 04:09:41;;;;;;;85.10;42.03;;;;;;;;;;5044586;28;20399;-82
2022/01/14 04:12:09;;;;;;;84.30;39.42;;;;;;;;;;5062992;28;20037;-81
2022/01/14 04:17:10;;;;;;;74.18;38.60;;;;;;;;;;5066113;28;20467;-83
2022/01/14 04:19:36;;;;;;;81.43;39.10;;;;;;;;;;5046197;28;20033;-81
2022/01/14 04:22:02;;;;;;;89.13;43.63;;;;;;;;;;5066202;28;20044;-81
2022/01/14 04:24:28;;;;;;;88.70;42.17;;;;;;;;;;5065665;28;20041;-81
2022/01/14 04:26:54;;;;;;;77.18;40.95;;;;;;;;;;5047988;28;20051;-82
2022/01/14 04:29:20;;;;;;;88.32;42.13;;;;;;;;;;5049456;28;20045;-81
2022/01/14 04:31:46;;;;;;;88.90;41.97;;;;;;;;;;5047492;28;20097;-82
2022/01/14 04:34:15;;;;;;;74.75;38.28;;;;;;;;;;5048555;28;20092;-82
2022/01/14 04:36:43;;;;;;;81.28;40.55;;;;;;;;;;5047612;28;20048;-82
2022/01/14 04:39:09;;;;;;;85.60;41.78;;;;;;;;;;5049868;28;20037;-82
2022/01/14 04:41:35;;;;;;;82.50;38.88;;;;;;;;;;5062640;28;20120;-80
2022/01/14 04:44:01;;;;;;;85.63;41.15;;;;;;;;;;5043331;28;20072;-80
2022/01/14 04:48:56;;;;;;;78.45;39.53;;;;;;;;;;5063422;28;20072;-81
2022/01/14 04:51:22;;;;;;;80.78;38.83;;;;;;;;;;5065038;28;20472;-82
2022/01/14 04:53:48;;;;;;;84.70;41.85;;;;;;;;;;5059765;28;20041;-83
2022/01/14 04:56:14;;;;;;;86.35;40.92;;;;;;;;;;5059645;28;20454;-81
2022/01/14 04:58:40;;;;;;;87.18;41.88;;;;;;;;;;5064989;28;20029;-81
2022/01/14 05:01:06;;;;;;;83.00;38.70;;;;;;;;;;5060805;28;20037;-81
2022/01/14 05:03:32;;;;;;;91.68;41.75;;;;;;;;;;5058242;28;20037;-83
2022/01/14 05:06:00;;;;;;;79.15;41.15;;;;;;;;;;5071049;28;20041;-80
2022/01/14 05:08:35;;;;;;;85.95;39.70;;;;;;;;;;5066432;28;20397;-82
2022/01/14 05:11:21;;;;;;;80.22;39.15;;;;;;;;;;5048223;28;20045;-82
2022/01/14 05:13:47;;;;;;;75.60;37.63;;;;;;;;;;5049828;28;20104;-82
2022/01/14 05:16:13;;;;;;;79.03;39.25;;;;;;;;;;5051154;28;20447;-81
2022/01/14 05:18:39;;;;;;;78.70;39.63;;;;;;;;;;5066844;28;20080;-82
2022/01/14 05:21:05;;;;;;;79.75;37.90;;;;;;;;;;5053144;28;20044;-78
2022/01/14 05:23:31;;;;;;;79.45;37.97;;;;;;;;;;5070808;28;20081;-82
2022/01/14 05:25:57;;;;;;;77.97;38.92;;;;;;;;;;5065077;28;20037;-82
2022/01/14 05:28:24;;;;;;;86.07;41.55;;;;;;;;;;5047664;28;20041;-83
2022/01/14 05:30:50;;;;;;;89.88;39.65;;;;;;;;;;5044866;28;20057;-83
2022/01/14 05:33:16;;;;;;;87.72;42.97;;;;;;;;;;5063198;28;20036;-82
2022/01/14 05:35:42;;;;;;;85.18;39.45;;;;;;;;;;5047499;28;20048;-83
2022/01/14 05:38:08;;;;;;;83.07;40.78;;;;;;;;;;5045909;28;20072;-83
2022/01/14 05:40:34;;;;;;;97.85;44.78;;;;;;;;;;5042709;28;20057;-81
2022/01/14 05:43:01;;;;;;;87.13;42.40;;;;;;;;;;5042912;28;20037;-81
2022/01/14 05:45:27;;;;;;;93.25;45.65;;;;;;;;;;5062230;28;20049;-80
2022/01/14 05:47:53;;;;;;;86.47;42.72;;;;;;;;;;5052908;28;20043;-80
2022/01/14 05:50:22;;;;;;;87.72;42.42;;;;;;;;;;5061319;28;20037;-81
2022/01/14 05:52:48;;;;;;;96.68;45.10;;;;;;;;;;5076944;28;20037;-80
2022/01/14 05:55:15;;;;;;;90.35;44.53;;;;;;;;;;5065062;28;20487;-82
2022/01/14 05:57:41;;;;;;;96.88;44.70;;;;;;;;;;5048742;28;20453;-80
2022/01/14 06:00:15;;;;;;;89.15;42.58;;;;;;;;;;5044262;28;20041;-83
2022/01/14 06:02:44;;;;;;;85.90;42.80;;;;;;;;;;5049529;28;20037;-81
2022/01/14 06:05:10;;;;;;;88.97;42.05;;;;;;;;;;5067645;28;20037;-82
2022/01/14 06:07:36;;;;;;;97.40;45.08;;;;;;;;;;5067315;28;20071;-80
2022/01/14 06:10:02;;;;;;;88.05;41.78;;;;;;;;;;5047186;28;20048;-81
2022/01/14 06:12:28;;;;;;;87.30;45.25;;;;;;;;;;5045178;28;20064;-82
2022/01/14 06:14:54;;;;;;;86.32;44.35;;;;;;;;;;5046073;28;20060;-81
2022/01/14 06:17:20;;;;;;;92.38;44.53;;;;;;;;;;5062758;28;20709;-83
2022/01/14 06:19:46;;;;;;;93.22;47.08;;;;;;;;;;5064754;28;20119;-82
2022/01/14 06:22:12;;;;;;;94.07;46.58;;;;;;;;;;5044970;28;20410;-82
2022/01/14 06:24:38;;;;;;;96.18;48.30;;;;;;;;;;5045143;28;20442;-83
2022/01/14 06:27:04;;;;;;;99.07;49.13;;;;;;;;;;5059724;28;20041;-83
2022/01/14 06:29:30;;;;;;;96.32;47.63;;;;;;;;;;5042485;28;20037;-83
2022/01/14 06:31:56;;;;;;;100.28;47.75;;;;;;;;;;5060204;28;20102;-83
2022/01/14 06:34:22;;;;;;;95.97;47.50;;;;;;;;;;5057714;28;20028;-80
2022/01/14 06:36:48;;;;;;;101.00;46.47;;;;;;;;;;5070888;28;20045;-82
2022/01/14 06:39:14;;;;;;;94.53;46.00;;;;;;;;;;5057115;28;20116;-82
2022/01/14 06:41:40;;;;;;;96.38;46.75;;;;;;;;;;5060794;28;20093;-79
2022/01/14 06:44:06;;;;;;;104.50;49.63;;;;;;;;;;5061387;28;20064;-82
2022/01/14 06:46:32;;;;;;;98.10;49.17;;;;;;;;;;5040909;28;20116;-82
2022/01/14 06:48:58;;;;;;;99.38;49.28;;;;;;;;;;5040025;28;20041;-80
2022/01/14 06:51:24;;;;;;;106.82;52.00;;;;;;;;;;5040039;28;20037;-81
2022/01/14 06:53:50;;;;;;;112.13;52.80;;;;;;;;;;5058001;28;20052;-83
2022/01/14 06:56:16;;;;;;;108.07;52.38;;;;;;;;;;5059452;28;20049;-82
2022/01/14 06:58:43;;;;;;;95.00;47.97;;;;;;;;;;5063244;28;20037;-83
2022/01/14 07:01:09;;;;;;;99.47;47.92;;;;;;;;;;5066374;28;20033;-80
2022/01/14 07:03:35;;;;;;;102.85;47.85;;;;;;;;;;5065591;28;20070;-81
2022/01/14 07:06:01;;;;;;;100.43;48.30;;;;;;;;;;5047757;28;20044;-82
2022/01/14 07:08:27;;;;;;;110.68;53.80;;;;;;;;;;5063766;28;20065;-80
2022/01/14 07:10:53;;;;;;;116.88;58.00;;;;;;;;;;5063665;28;20052;-81
2022/01/14 07:13:19;;;;;;;123.75;56.15;;;;;;;;;;5063264;28;20036;-80
2022/01/14 07:15:45;;;;;;;112.35;53.58;;;;;;;;;;5060236;28;20090;-81
2022/01/14 07:18:11;;;;;;;113.53;52.08;;;;;;;;;;5063414;28;20033;-82
2022/01/14 07:20:38;;;;;;;132.15;60.38;;;;;;;;;;5072975;28;20059;-78
2022/01/14 07:23:04;;;;;;;116.72;59.47;;;;;;;;;;5080265;28;20091;-81
2022/01/14 07:25:30;;;;;;;116.00;55.05;;;;;;;;;;5075041;28;20041;-81
2022/01/14 07:27:57;;;;;;;109.53;53.88;;;;;;;;;;5045118;28;20037;-82
2022/01/14 07:30:23;;;;;;;113.50;55.28;;;;;;;;;;5050757;28;20045;-84
2022/01/14 07:32:49;;;;;;;109.80;54.53;;;;;;;;;;5061851;28;20047;-82
2022/01/14 07:35:15;;;;;;;112.40;56.30;;;;;;;;;;5064095;28;20041;-82
2022/01/14 07:37:41;;;;;;;118.35;54.95;;;;;;;;;;5061539;28;20449;-80
2022/01/14 07:40:07;;;;;;;102.45;53.10;;;;;;;;;;5062130;28;20037;-82
2022/01/14 07:42:34;;;;;;;116.13;55.25;;;;;;;;;;5063866;28;20087;-82
2022/01/14 07:45:00;;;;;;;121.25;57.78;;;;;;;;;;5061206;28;20037;-81
2022/01/14 07:47:26;;;;;;;111.30;55.65;;;;;;;;;;5047902;28;20045;-80
2022/01/14 07:49:53;;;;;;;121.32;59.17;;;;;;;;;;5046836;28;20045;-81
2022/01/14 07:52:19;;;;;;;127.50;60.85;;;;;;;;;;5060046;28;20068;-80
2022/01/14 07:54:45;;;;;;;116.80;56.95;;;;;;;;;;5064407;28;20025;-81
2022/01/14 07:57:11;;;;;;;105.43;54.75;;;;;;;;;;5049813;28;20095;-81
2022/01/14 07:59:37;;;;;;;106.43;52.42;;;;;;;;;;5062787;28;20076;-81
2022/01/14 08:02:03;;;;;;;116.57;57.70;;;;;;;;;;5062492;28;20040;-82
2022/01/14 08:04:33;;;;;;;113.43;57.63;;;;;;;;;;5064525;28;20056;-82
2022/01/14 08:07:08;;;;;;;116.45;57.15;;;;;;;;;;5069300;28;20031;-80
2022/01/14 08:09:34;;;;;;;110.45;59.13;;;;;;;;;;5078759;28;20100;-80
2022/01/14 08:12:00;;;;;;;128.70;63.83;;;;;;;;;;5047149;28;20445;-83
2022/01/14 08:14:26;;;;;;;135.82;66.30;;;;;;;;;;5044306;28;20041;-83
2022/01/14 08:16:52;;;;;;;123.43;64.63;;;;;;;;;;5061617;28;20066;-82
2022/01/14 08:19:18;;;;;;;140.73;69.80;;;;;;;;;;5061119;28;20045;-83
2022/01/14 08:21:44;;;;;;;151.20;72.60;;;;;;;;;;5061229;28;20459;-83
2022/01/14 08:24:10;;;;;;;151.10;74.03;;;;;;;;;;5062143;28;20041;-82
2022/01/14 08:26:36;;;;;;;120.28;62.50;;;;;;;;;;5061104;28;20041;-83
2022/01/14 08:29:02;;;;;;;125.88;60.42;;;;;;;;;;5060554;28;20067;-82
2022/01/14 08:31:28;;;;;;;120.43;58.80;;;;;;;;;;5044185;28;20052;-84
2022/01/14 08:33:54;;;;;;;126.20;63.97;;;;;;;;;;5044401;28;20049;-83
2022/01/14 08:36:20;;;;;;;120.97;61.13;;;;;;;;;;5060997;28;20075;-82
2022/01/14 08:38:46;;;;;;;129.98;65.53;;;;;;;;;;5044284;28;20033;-83
2022/01/14 08:41:12;;;;;;;126.20;64.05;;;;;;;;;;5061054;28;20064;-82
2022/01/14 08:43:38;;;;;;;133.40;71.07;;;;;;;;;;5060501;28;20071;-81
2022/01/14 08:46:04;;;;;;;144.48;71.72;;;;;;;;;;5059065;28;20040;-84
2022/01/14 08:48:31;;;;;;;154.75;77.05;;;;;;;;;;5060220;28;20361;-81
2022/01/14 08:50:57;;;;;;;151.32;83.63;;;;;;;;;;5059942;28;20079;-83
2022/01/14 08:53:23;;;;;;;155.75;83.63;;;;;;;;;;5059394;28;20044;-83
2022/01/14 08:55:49;;;;;;;137.80;76.72;;;;;;;;;;5043456;28;20361;-84
2022/01/14 08:58:15;;;;;;;143.82;79.28;;;;;;;;;;5063228;28;20040;-83
2022/01/14 09:00:41;;;;;;;151.27;77.43;;;;;;;;;;5061817;28;20025;-81
2022/01/14 09:03:07;;;;;;;147.65;73.38;;;;;;;;;;5059665;28;20041;-83
2022/01/14 09:05:33;;;;;;;145.27;74.82;;;;;;;;;;5044547;28;20044;-82
2022/01/14 09:08:00;;;;;;;131.85;73.20;;;;;;;;;;5046953;28;20033;-83
2022/01/14 09:10:26;;;;;;;161.52;77.95;;;;;;;;;;5048179;28;20334;-82
2022/01/14 09:12:52;;;;;;;143.30;73.32;;;;;;;;;;5065809;28;20094;-84
2022/01/14 09:15:18;;;;;;;141.20;69.97;;;;;;;;;;5065545;28;20120;-82
2022/01/14 09:17:44;;;;;;;135.18;67.80;;;;;;;;;;5063849;28;20049;-81
2022/01/14 09:20:12;;;;;;;135.27;64.88;;;;;;;;;;5069739;28;20040;-82
2022/01/14 09:22:38;;;;;;;151.25;64.32;;;;;;;;;;5047191;28;20488;-84
2022/01/14 09:25:09;;;;;;;119.30;59.60;;;;;;;;;;5047914;28;20037;-86
2022/01/14 09:27:35;;;;;;;127.82;59.72;;;;;;;;;;5048008;28;20106;-85
2022/01/14 09:30:02;;;;;;;117.93;55.40;;;;;;;;;;5064333;28;20063;-84
2022/01/14 09:32:28;;;;;;;126.03;60.88;;;;;;;;;;5064659;28;20041;-84
2022/01/14 09:34:54;;;;;;;130.15;61.30;;;;;;;;;;5048345;28;20051;-84
2022/01/14 09:37:20;;;;;;;142.43;62.45;;;;;;;;;;5047345;28;20040;-81
2022/01/14 09:39:46;;;;;;;148.02;63.13;;;;;;;;;;5047403;28;20064;-83
2022/01/14 09:42:12;;;;;;;159.57;67.18;;;;;;;;;;5064274;28;20040;-84
2022/01/14 09:44:38;;;;;;;148.05;67.57;;;;;;;;;;5048253;28;20123;-83
2022/01/14 09:47:05;;;;;;;159.68;71.50;;;;;;;;;;5048489;28;20036;-84
2022/01/14 09:49:31;;;;;;;156.82;69.05;;;;;;;;;;5049039;28;20045;-81
2022/01/14 09:51:57;;;;;;;181.35;74.47;;;;;;;;;;5062155;28;20074;-80
2022/01/14 09:54:23;;;;;;;201.63;74.13;;;;;;;;;;5061638;28;20041;-81
2022/01/14 09:56:49;;;;;;;236.55;69.63;;;;;;;;;;5042379;28;20049;-82
2022/01/14 09:59:19;;;;;;;181.13;69.93;;;;;;;;;;5062911;28;20033;-84
2022/01/14 10:01:45;;;;;;;181.70;69.60;;;;;;;;;;5044027;28;20048;-82
2022/01/14 10:04:18;;;;;;;178.18;65.43;;;;;;;;;;5043052;28;20037;-82
2022/01/14 10:06:49;;;;;;;173.05;66.30;;;;;;;;;;5044171;28;20076;-83
2022/01/14 10:09:17;;;;;;;214.02;67.70;;;;;;;;;;5042952;28;20045;-82
2022/01/14 10:11:44;;;;;;;167.88;66.45;;;;;;;;;;5061584;28;20041;-81
2022/01/14 10:14:11;;;;;;;209.77;66.03;;;;;;;;;;5060015;28;20140;-83
2022/01/14 10:16:40;;;;;;;195.15;66.00;;;;;;;;;;5045453;28;20048;-82
2022/01/14 10:19:16;;;;;;;165.05;64.80;;;;;;;;;;5045225;28;20040;-82
2022/01/14 10:21:42;;;;;;;188.93;65.00;;;;;;;;;;5043782;28;20083;-83
2022/01/14 10:24:10;;;;;;;158.15;62.10;;;;;;;;;;5044594;28;20033;-81
2022/01/14 10:26:46;;;;;;;173.15;62.22;;;;;;;;;;5044331;28;20037;-81
2022/01/14 10:29:12;;;;;;;186.63;59.25;;;;;;;;;;5042919;28;20036;-82
2022/01/14 10:31:42;;;;;;;165.32;59.60;;;;;;;;;;5060697;28;20048;-83
2022/01/14 10:34:15;;;;;;;149.40;58.72;;;;;;;;;;5044004;28;20099;-82
2022/01/14 10:36:44;;;;;;;172.77;58.20;;;;;;;;;;5060930;28;20424;-81
2022/01/14 10:39:20;;;;;;;147.07;53.65;;;;;;;;;;5063210;28;20468;-82
2022/01/14 10:41:46;;;;;;;133.05;52.78;;;;;;;;;;5063597;28;20079;-82
2022/01/14 10:44:23;;;;;;;134.90;53.45;;;;;;;;;;5047065;28;20037;-81
2022/01/14 10:46:49;;;;;;;169.93;62.78;;;;;;;;;;5064328;28;20080;-81
2022/01/14 10:49:31;;;;;;;169.93;62.38;;;;;;;;;;5048191;28;20045;-81
2022/01/14 10:52:17;;;;;;;150.88;54.55;;;;;;;;;;5048972;28;20056;-82
2022/01/14 10:54:50;;;;;;;151.20;57.47;;;;;;;;;;5047332;28;20093;-81
2022/01/14 10:57:23;;;;;;;145.80;56.50;;;;;;;;;;5046878;28;20480;-80
2022/01/14 10:59:49;;;;;;;;;;;;;;;;;;5047518;28;20368;-81
2022/01/14 11:02:34;;;;;;;149.43;55.20;;;;;;;;;;5063272;28;19913;-81
2022/01/14 11:05:16;;;;;;;131.57;47.78;;;;;;;;;;5046579;28;20037;-82
2022/01/14 11:07:43;;;;;;;104.90;40.83;;;;;;;;;;5047298;28;20445;-81
2022/01/14 11:10:15;;;;;;;116.25;44.63;;;;;;;;;;5063089;28;20060;-80
2022/01/14 11:12:42;;;;;;;116.53;41.60;;;;;;;;;;5063329;28;20037;-81
2022/01/14 11:15:08;;;;;;;102.43;40.97;;;;;;;;;;5065019;28;20037;-82
2022/01/14 11:17:38;;;;;;;100.05;39.22;;;;;;;;;;5046533;28;20041;-82
2022/01/14 11:20:04;;;;;;;88.35;39.22;;;;;;;;;;5063650;28;20080;-81
2022/01/14 11:25:15;;;;;;;83.20;35.65;;;;;;;;;;5066748;28;20041;-82
2022/01/14 11:27:41;;;;;;;89.65;36.65;;;;;;;;;;5070093;28;20374;-83
2022/01/14 11:30:12;;;;;;;85.32;35.17;;;;;;;;;;5055653;28;20102;-82
2022/01/14 11:32:54;;;;;;;78.10;34.30;;;;;;;;;;5053975;28;20051;-80
2022/01/14 11:35:24;;;;;;;75.43;33.10;;;;;;;;;;5054147;28;20106;-82
2022/01/14 11:37:50;;;;;;;72.07;31.63;;;;;;;;;;5069758;28;20040;-80
2022/01/14 11:40:16;;;;;;;78.72;32.97;;;;;;;;;;5049361;28;20100;-78
2022/01/14 11:42:48;;;;;;;77.90;31.92;;;;;;;;;;5068796;28;20140;-81
2022/01/14 11:45:15;;;;;;;79.28;35.75;;;;;;;;;;5063790;28;20040;-84
2022/01/14 11:47:44;;;;;;;119.03;49.05;;;;;;;;;;5045626;28;20037;-83
2022/01/14 11:50:19;;;;;;;129.20;50.15;;;;;;;;;;5064706;28;20128;-84
2022/01/14 11:52:46;;;;;;;113.72;50.28;;;;;;;;;;5062717;28;20092;-81
2022/01/14 11:55:24;;;;;;;128.80;51.28;;;;;;;;;;5045300;28;20041;-83
2022/01/14 11:57:54;;;;;;;119.72;52.17;;;;;;;;;;5061096;28;20049;-84
2022/01/14 12:00:40;;;;;;;133.57;51.90;;;;;;;;;;5063024;28;20048;-82
2022/01/14 12:03:17;;;;;;;129.02;52.05;;;;;;;;;;5063800;28;20047;-84
2022/01/14 12:05:53;;;;;;;116.68;49.95;;;;;;;;;;5063547;28;20056;-81
2022/01/14 12:08:20;;;;;;;117.55;49.95;;;;;;;;;;5065998;28;20037;-83
2022/01/14 12:11:16;;;;;;;109.43;47.10;;;;;;;;;;5050331;28;20033;-83
2022/01/14 12:13:53;;;;;;;109.85;48.40;;;;;;;;;;5053147;28;20399;-82
2022/01/14 12:16:35;;;;;;;118.82;50.75;;;;;;;;;;5065140;28;20048;-81
2022/01/14 12:19:02;;;;;;;103.18;45.88;;;;;;;;;;5063412;28;20041;-82
2022/01/14 12:21:43;;;;;;;111.00;48.40;;;;;;;;;;5060324;28;20033;-82
2022/01/14 12:24:18;;;;;;;99.88;45.20;;;;;;;;;;5062678;28;20094;-80
2022/01/14 12:27:18;;;;;;;89.60;39.33;;;;;;;;;;5061078;28;20044;-83
2022/01/14 12:29:50;;;;;;;86.35;39.00;;;;;;;;;;5063483;28;20114;-81
2022/01/14 12:32:17;;;;;;;91.15;37.83;;;;;;;;;;5044887;28;20048;-82
2022/01/14 12:34:56;;;;;;;74.93;35.42;;;;;;;;;;5061558;28;20608;-81
2022/01/14 12:37:22;;;;;;;76.20;34.55;;;;;;;;;;5060319;28;20065;-84
2022/01/14 12:39:49;;;;;;;77.30;33.70;;;;;;;;;;5061023;28;20040;-83
2022/01/14 12:42:15;;;;;;;72.25;34.33;;;;;;;;;;5045190;28;20106;-83
2022/01/14 12:44:41;;;;;;;74.00;33.92;;;;;;;;;;5043770;28;20056;-82
2022/01/14 12:47:09;;;;;;;104.95;45.60;;;;;;;;;;5061816;28;20128;-83
2022/01/14 12:49:36;;;;;;;106.85;47.47;;;;;;;;;;5066114;28;20037;-83
2022/01/14 12:52:09;;;;;;;100.18;45.80;;;;;;;;;;5065371;28;20438;-84
2022/01/14 12:54:35;;;;;;;;;;;;;;;;;;5054498;28;20044;-83
2022/01/14 12:57:02;;;;;;;90.32;40.78;;;;;;;;;;5072678;28;19970;-84
2022/01/14 12:59:28;;;;;;;78.95;37.58;;;;;;;;;;5064992;28;20037;-85
2022/01/14 13:01:54;;;;;;;105.40;47.13;;;;;;;;;;5047383;28;20179;-85
2022/01/14 13:04:21;;;;;;;103.20;45.65;;;;;;;;;;5063211;28;20041;-83
2022/01/14 13:06:48;;;;;;;104.55;43.90;;;;;;;;;;5062342;28;20040;-84
2022/01/14 13:09:18;;;;;;;85.95;38.45;;;;;;;;;;5064961;28;20037;-83
2022/01/14 13:12:03;;;;;;;85.53;37.45;;;;;;;;;;5048802;28;20047;-86
2022/01/14 13:14:36;;;;;;;73.90;34.05;;;;;;;;;;5068633;28;20071;-85
2022/01/14 13:17:03;;;;;;;;;;;;;;;;;;5049615;28;20036;-79
2022/01/14 13:19:33;;;;;;;65.85;29.35;;;;;;;;;;5068155;28;19909;-81
2022/01/14 13:22:07;;;;;;;61.22;30.27;;;;;;;;;;5051096;28;20040;-85
2022/01/14 13:24:35;;;;;;;56.28;28.73;;;;;;;;;;5066806;28;20041;-81
2022/01/14 13:27:24;;;;;;;55.15;26.35;;;;;;;;;;5047744;28;20044;-82
2022/01/14 13:29:53;;;;;;;53.25;26.48;;;;;;;;;;5064049;28;20052;-84
2022/01/14 13:32:21;;;;;;;50.15;27.17;;;;;;;;;;5065323;28;20040;-83
2022/01/14 13:34:51;;;;;;;58.65;29.38;;;;;;;;;;5047593;28;20457;-84
2022/01/14 13:37:18;;;;;;;56.50;28.08;;;;;;;;;;5046742;28;20354;-84
2022/01/14 13:39:44;;;;;;;51.70;24.40;;;;;;;;;;5046903;28;20029;-84
2022/01/14 13:42:23;;;;;;;50.25;26.50;;;;;;;;;;5047115;28;20056;-84
2022/01/14 13:44:49;;;;;;;50.22;25.92;;;;;;;;;;5047051;28;20037;-86
2022/01/14 13:47:22;;;;;;;55.38;28.30;;;;;;;;;;5067005;28;20105;-84
2022/01/14 13:49:48;;;;;;;49.08;26.52;;;;;;;;;;5050403;28;20121;-85
2022/01/14 13:52:14;;;;;;;58.20;27.70;;;;;;;;;;5052429;28;20082;-85
2022/01/14 13:54:41;;;;;;;58.58;29.02;;;;;;;;;;5054372;28;20056;-84
2022/01/14 13:57:10;;;;;;;76.38;36.28;;;;;;;;;;5052950;28;20053;-82
2022/01/14 13:59:37;;;;;;;74.22;36.97;;;;;;;;;;5071135;28;20452;-83
2022/01/14 14:02:05;;;;;;;72.35;36.85;;;;;;;;;;5043521;28;20033;-83
2022/01/14 14:04:35;;;;;;;75.50;38.15;;;;;;;;;;5061026;28;20041;-83
2022/01/14 14:07:06;;;;;;;79.03;38.22;;;;;;;;;;5061216;28;20052;-84
2022/01/14 14:09:45;;;;;;;72.75;38.00;;;;;;;;;;5045301;28;20073;-84
2022/01/14 14:17:40;;;;;;;39.67;21.35;;;;;;;;;;5062859;28;20037;-84
2022/01/14 14:20:06;;;;;;;38.28;20.75;;;;;;;;;;5045074;28;20037;-84
2022/01/14 14:22:36;;;;;;;47.80;21.52;;;;;;;;;;5046681;28;20041;-85
2022/01/14 14:25:15;;;;;;;52.42;26.67;;;;;;;;;;5065539;28;20073;-82
2022/01/14 14:27:58;;;;;;;51.60;28.50;;;;;;;;;;5064564;28;20037;-83
2022/01/14 14:30:26;;;;;;;42.88;24.38;;;;;;;;;;5047705;28;20521;-82
2022/01/14 14:32:53;;;;;;;39.10;21.20;;;;;;;;;;5066213;28;20415;-83
2022/01/14 14:35:20;;;;;;;39.38;21.50;;;;;;;;;;5067650;28;20037;-82
2022/01/14 14:37:48;;;;;;;37.58;20.20;;;;;;;;;;5065530;28;20052;-83
2022/01/14 14:40:17;;;;;;;34.88;19.15;;;;;;;;;;5046716;28;20049;-83
2022/01/14 14:42:44;;;;;;;39.00;21.50;;;;;;;;;;5066443;28;20037;-84
2022/01/14 14:45:10;;;;;;;44.67;22.88;;;;;;;;;;5046372;28;20041;-84
2022/01/14 14:47:36;;;;;;;43.50;24.23;;;;;;;;;;5046781;28;20047;-83
2022/01/14 14:50:02;;;;;;;45.70;23.92;;;;;;;;;;5047540;28;20040;-84
2022/01/14 14:52:28;;;;;;;39.53;22.70;;;;;;;;;;5048966;28;20041;-83
2022/01/14 14:54:54;;;;;;;39.08;20.75;;;;;;;;;;5047088;28;20076;-82